sensor_id;sensor_type;location;lat;lon;timestamp;P1;durP1;ratioP1;P2;durP2;ratioP2
12088;SDS011;6107;49.078;8.578;2022-08-03T00:01:34;4.22;;;3.47;;
12088;SDS011;6107;49.078;8.578;2022-08-03T00:04:01;4.25;;;3.33;;
12088;SDS011;6107;49.078;8.578;2022-08-03T00:06:28;3.67;;;3.38;;
12088;SDS011;6107;49.078;8.578;2022-08-03T00:08:53;3.22;;;2.92;;
12088;SDS011;6107;49.078;8.578;2022-08-03T00:11:19;3.83;;;3.22;;
12088;SDS011;6107;49.078;8.578;2022-08-03T00:13:44;4.22;;;3.25;;
12088;SDS011;6107;49.078;8.578;2022-08-03T00:16:10;4.07;;;3.25;;
12088;SDS011;6107;49.078;8.578;2022-08-03T00:18:36;4.88;;;3.30;;
12088;SDS011;6107;49.078;8.578;2022-08-03T00:21:02;4.82;;;3.17;;
12088;SDS011;6107;49.078;8.578;2022-08-03T00:23:28;4.72;;;3.85;;
12088;SDS011;6107;49.078;8.578;2022-08-03T00:25:54;3.33;;;3.03;;
12088;SDS011;6107;49.078;8.578;2022-08-03T00:28:20;3.45;;;3.08;;
12088;SDS011;6107;49.078;8.578;2022-08-03T00:30:45;3.95;;;2.78;;
12088;SDS011;6107;49.078;8.578;2022-08-03T00:33:11;4.72;;;2.90;;
12088;SDS011;6107;49.078;8.578;2022-08-03T00:35:36;6.45;;;3.40;;
12088;SDS011;6107;49.078;8.578;2022-08-03T00:38:02;4.93;;;3.42;;
12088;SDS011;6107;49.078;8.578;2022-08-03T00:40:28;4.13;;;3.15;;
12088;SDS011;6107;49.078;8.578;2022-08-03T00:42:54;4.15;;;3.20;;
12088;SDS011;6107;49.078;8.578;2022-08-03T00:45:31;3.88;;;3.28;;
12088;SDS011;6107;49.078;8.578;2022-08-03T00:47:59;5.88;;;3.30;;
12088;SDS011;6107;49.078;8.578;2022-08-03T00:50:30;5.85;;;3.45;;
12088;SDS011;6107;49.078;8.578;2022-08-03T00:52:59;3.72;;;3.38;;
12088;SDS011;6107;49.078;8.578;2022-08-03T00:55:25;4.28;;;3.40;;
12088;SDS011;6107;49.078;8.578;2022-08-03T00:57:51;3.33;;;2.83;;
12088;SDS011;6107;49.078;8.578;2022-08-03T01:00:20;3.63;;;3.13;;
12088;SDS011;6107;49.078;8.578;2022-08-03T01:02:47;5.15;;;3.30;;
12088;SDS011;6107;49.078;8.578;2022-08-03T01:05:14;7.05;;;3.10;;
12088;SDS011;6107;49.078;8.578;2022-08-03T01:18:54;4.53;;;3.38;;
12088;SDS011;6107;49.078;8.578;2022-08-03T01:21:28;6.85;;;3.40;;
12088;SDS011;6107;49.078;8.578;2022-08-03T01:24:01;3.40;;;3.10;;
12088;SDS011;6107;49.078;8.578;2022-08-03T01:26:41;3.53;;;2.90;;
12088;SDS011;6107;49.078;8.578;2022-08-03T01:32:28;4.75;;;3.65;;
12088;SDS011;6107;49.078;8.578;2022-08-03T01:35:16;4.03;;;3.55;;
12088;SDS011;6107;49.078;8.578;2022-08-03T01:38:00;4.13;;;3.28;;
12088;SDS011;6107;49.078;8.578;2022-08-03T01:40:28;5.60;;;3.72;;
12088;SDS011;6107;49.078;8.578;2022-08-03T01:42:56;4.82;;;3.60;;
12088;SDS011;6107;49.078;8.578;2022-08-03T01:45:23;4.82;;;3.38;;
12088;SDS011;6107;49.078;8.578;2022-08-03T01:47:51;4.55;;;3.72;;
12088;SDS011;6107;49.078;8.578;2022-08-03T01:50:22;4.85;;;3.90;;
12088;SDS011;6107;49.078;8.578;2022-08-03T01:52:51;4.55;;;3.35;;
12088;SDS011;6107;49.078;8.578;2022-08-03T01:55:18;5.50;;;3.97;;
12088;SDS011;6107;49.078;8.578;2022-08-03T01:57:45;4.20;;;3.47;;
12088;SDS011;6107;49.078;8.578;2022-08-03T02:00:12;3.95;;;3.40;;
12088;SDS011;6107;49.078;8.578;2022-08-03T02:02:38;4.30;;;3.40;;
12088;SDS011;6107;49.078;8.578;2022-08-03T02:05:06;4.47;;;3.60;;
12088;SDS011;6107;49.078;8.578;2022-08-03T02:07:34;3.53;;;3.22;;
12088;SDS011;6107;49.078;8.578;2022-08-03T02:10:02;4.88;;;3.30;;
12088;SDS011;6107;49.078;8.578;2022-08-03T02:12:30;3.65;;;3.33;;
12088;SDS011;6107;49.078;8.578;2022-08-03T02:14:56;8.10;;;3.78;;
12088;SDS011;6107;49.078;8.578;2022-08-03T02:17:24;5.55;;;3.75;;
12088;SDS011;6107;49.078;8.578;2022-08-03T02:19:51;4.13;;;3.63;;
12088;SDS011;6107;49.078;8.578;2022-08-03T02:22:18;10.93;;;4.20;;
12088;SDS011;6107;49.078;8.578;2022-08-03T02:24:45;3.55;;;3.25;;
12088;SDS011;6107;49.078;8.578;2022-08-03T02:27:19;3.70;;;3.40;;
12088;SDS011;6107;49.078;8.578;2022-08-03T02:29:55;6.10;;;3.28;;
12088;SDS011;6107;49.078;8.578;2022-08-03T02:32:30;3.60;;;3.20;;
12088;SDS011;6107;49.078;8.578;2022-08-03T02:35:00;4.95;;;3.38;;
12088;SDS011;6107;49.078;8.578;2022-08-03T02:37:28;4.28;;;3.22;;
12088;SDS011;6107;49.078;8.578;2022-08-03T02:40:00;5.55;;;3.80;;
12088;SDS011;6107;49.078;8.578;2022-08-03T02:42:27;4.15;;;3.35;;
12088;SDS011;6107;49.078;8.578;2022-08-03T02:44:54;3.78;;;3.30;;
12088;SDS011;6107;49.078;8.578;2022-08-03T02:47:22;5.85;;;3.42;;
12088;SDS011;6107;49.078;8.578;2022-08-03T02:49:51;3.97;;;3.47;;
12088;SDS011;6107;49.078;8.578;2022-08-03T02:52:22;4.85;;;3.65;;
12088;SDS011;6107;49.078;8.578;2022-08-03T02:54:54;5.75;;;3.55;;
12088;SDS011;6107;49.078;8.578;2022-08-03T02:57:22;4.50;;;3.35;;
12088;SDS011;6107;49.078;8.578;2022-08-03T02:59:50;4.53;;;3.63;;
12088;SDS011;6107;49.078;8.578;2022-08-03T03:02:17;4.83;;;3.60;;
12088;SDS011;6107;49.078;8.578;2022-08-03T03:04:44;4.50;;;3.63;;
12088;SDS011;6107;49.078;8.578;2022-08-03T03:07:11;3.80;;;3.50;;
12088;SDS011;6107;49.078;8.578;2022-08-03T03:09:38;4.22;;;3.83;;
12088;SDS011;6107;49.078;8.578;2022-08-03T03:12:04;5.05;;;3.28;;
12088;SDS011;6107;49.078;8.578;2022-08-03T03:14:32;4.95;;;3.88;;
12088;SDS011;6107;49.078;8.578;2022-08-03T03:16:58;5.95;;;3.80;;
12088;SDS011;6107;49.078;8.578;2022-08-03T03:19:25;5.28;;;3.78;;
12088;SDS011;6107;49.078;8.578;2022-08-03T03:21:51;4.43;;;3.53;;
12088;SDS011;6107;49.078;8.578;2022-08-03T03:24:19;5.85;;;3.67;;
12088;SDS011;6107;49.078;8.578;2022-08-03T03:26:46;5.35;;;3.80;;
12088;SDS011;6107;49.078;8.578;2022-08-03T03:29:12;4.85;;;3.38;;
12088;SDS011;6107;49.078;8.578;2022-08-03T03:31:39;4.97;;;3.58;;
12088;SDS011;6107;49.078;8.578;2022-08-03T03:34:05;5.03;;;3.58;;
12088;SDS011;6107;49.078;8.578;2022-08-03T03:36:31;6.20;;;3.42;;
12088;SDS011;6107;49.078;8.578;2022-08-03T03:38:56;4.28;;;3.88;;
12088;SDS011;6107;49.078;8.578;2022-08-03T03:41:22;4.57;;;3.63;;
12088;SDS011;6107;49.078;8.578;2022-08-03T03:43:48;6.82;;;3.42;;
12088;SDS011;6107;49.078;8.578;2022-08-03T03:46:14;4.32;;;3.92;;
12088;SDS011;6107;49.078;8.578;2022-08-03T03:48:40;5.47;;;3.50;;
12088;SDS011;6107;49.078;8.578;2022-08-03T03:51:06;4.55;;;3.75;;
12088;SDS011;6107;49.078;8.578;2022-08-03T03:53:32;3.90;;;3.50;;
12088;SDS011;6107;49.078;8.578;2022-08-03T03:55:57;4.33;;;3.70;;
12088;SDS011;6107;49.078;8.578;2022-08-03T03:58:23;4.05;;;3.65;;
12088;SDS011;6107;49.078;8.578;2022-08-03T04:00:49;3.70;;;3.40;;
12088;SDS011;6107;49.078;8.578;2022-08-03T04:03:14;4.38;;;3.88;;
12088;SDS011;6107;49.078;8.578;2022-08-03T04:05:40;4.57;;;3.55;;
12088;SDS011;6107;49.078;8.578;2022-08-03T04:08:24;4.35;;;3.70;;
12088;SDS011;6107;49.078;8.578;2022-08-03T04:13:37;4.30;;;3.90;;
12088;SDS011;6107;49.078;8.578;2022-08-03T04:16:06;6.07;;;3.67;;
12088;SDS011;6107;49.078;8.578;2022-08-03T04:18:36;4.70;;;3.67;;
12088;SDS011;6107;49.078;8.578;2022-08-03T04:21:09;7.22;;;4.13;;
12088;SDS011;6107;49.078;8.578;2022-08-03T04:23:39;4.43;;;3.90;;
12088;SDS011;6107;49.078;8.578;2022-08-03T04:26:08;3.83;;;3.30;;
12088;SDS011;6107;49.078;8.578;2022-08-03T04:28:38;5.13;;;3.70;;
12088;SDS011;6107;49.078;8.578;2022-08-03T04:31:07;6.07;;;4.13;;
12088;SDS011;6107;49.078;8.578;2022-08-03T04:33:33;4.82;;;4.22;;
12088;SDS011;6107;49.078;8.578;2022-08-03T04:36:01;5.72;;;3.88;;
12088;SDS011;6107;49.078;8.578;2022-08-03T04:38:31;5.63;;;4.13;;
12088;SDS011;6107;49.078;8.578;2022-08-03T04:41:02;4.80;;;4.07;;
12088;SDS011;6107;49.078;8.578;2022-08-03T04:43:29;4.90;;;4.18;;
12088;SDS011;6107;49.078;8.578;2022-08-03T04:45:57;4.72;;;4.00;;
12088;SDS011;6107;49.078;8.578;2022-08-03T04:48:24;5.63;;;4.00;;
12088;SDS011;6107;49.078;8.578;2022-08-03T04:50:50;4.20;;;3.50;;
12088;SDS011;6107;49.078;8.578;2022-08-03T04:53:16;4.78;;;3.53;;
12088;SDS011;6107;49.078;8.578;2022-08-03T04:55:42;5.00;;;4.03;;
12088;SDS011;6107;49.078;8.578;2022-08-03T04:58:07;5.05;;;3.80;;
12088;SDS011;6107;49.078;8.578;2022-08-03T05:00:34;5.35;;;3.95;;
12088;SDS011;6107;49.078;8.578;2022-08-03T05:02:59;4.80;;;4.13;;
12088;SDS011;6107;49.078;8.578;2022-08-03T05:05:25;6.95;;;4.03;;
12088;SDS011;6107;49.078;8.578;2022-08-03T05:07:50;5.90;;;4.55;;
12088;SDS011;6107;49.078;8.578;2022-08-03T05:10:16;6.00;;;4.22;;
12088;SDS011;6107;49.078;8.578;2022-08-03T05:12:42;4.18;;;3.63;;
12088;SDS011;6107;49.078;8.578;2022-08-03T05:15:09;5.53;;;3.88;;
12088;SDS011;6107;49.078;8.578;2022-08-03T05:17:34;5.63;;;4.03;;
12088;SDS011;6107;49.078;8.578;2022-08-03T05:20:00;5.72;;;3.97;;
12088;SDS011;6107;49.078;8.578;2022-08-03T05:22:28;4.88;;;3.83;;
12088;SDS011;6107;49.078;8.578;2022-08-03T05:24:54;5.38;;;4.05;;
12088;SDS011;6107;49.078;8.578;2022-08-03T05:27:19;5.13;;;3.92;;
12088;SDS011;6107;49.078;8.578;2022-08-03T05:29:46;4.97;;;3.92;;
12088;SDS011;6107;49.078;8.578;2022-08-03T05:32:13;5.88;;;4.10;;
12088;SDS011;6107;49.078;8.578;2022-08-03T05:34:40;5.40;;;3.72;;
12088;SDS011;6107;49.078;8.578;2022-08-03T05:37:05;5.07;;;3.95;;
12088;SDS011;6107;49.078;8.578;2022-08-03T05:39:31;7.40;;;3.53;;
12088;SDS011;6107;49.078;8.578;2022-08-03T05:41:57;6.22;;;3.60;;
12088;SDS011;6107;49.078;8.578;2022-08-03T05:44:23;8.52;;;3.95;;
12088;SDS011;6107;49.078;8.578;2022-08-03T05:46:49;7.18;;;3.67;;
12088;SDS011;6107;49.078;8.578;2022-08-03T05:49:15;7.72;;;4.40;;
12088;SDS011;6107;49.078;8.578;2022-08-03T05:51:41;6.00;;;3.90;;
12088;SDS011;6107;49.078;8.578;2022-08-03T05:54:07;8.90;;;4.30;;
12088;SDS011;6107;49.078;8.578;2022-08-03T05:56:33;5.07;;;3.75;;
12088;SDS011;6107;49.078;8.578;2022-08-03T05:58:59;7.45;;;3.72;;
12088;SDS011;6107;49.078;8.578;2022-08-03T06:01:25;6.15;;;3.90;;
12088;SDS011;6107;49.078;8.578;2022-08-03T06:03:51;7.28;;;3.40;;
12088;SDS011;6107;49.078;8.578;2022-08-03T06:06:17;9.38;;;3.95;;
12088;SDS011;6107;49.078;8.578;2022-08-03T06:08:43;5.38;;;3.72;;
12088;SDS011;6107;49.078;8.578;2022-08-03T06:11:10;4.25;;;3.80;;
12088;SDS011;6107;49.078;8.578;2022-08-03T06:13:37;7.95;;;3.80;;
12088;SDS011;6107;49.078;8.578;2022-08-03T06:16:03;7.05;;;3.60;;
12088;SDS011;6107;49.078;8.578;2022-08-03T06:18:29;4.80;;;3.53;;
12088;SDS011;6107;49.078;8.578;2022-08-03T06:20:55;5.25;;;4.03;;
12088;SDS011;6107;49.078;8.578;2022-08-03T06:23:21;6.63;;;3.90;;
12088;SDS011;6107;49.078;8.578;2022-08-03T06:25:47;4.78;;;3.58;;
12088;SDS011;6107;49.078;8.578;2022-08-03T06:28:13;4.70;;;3.88;;
12088;SDS011;6107;49.078;8.578;2022-08-03T06:30:39;4.97;;;3.45;;
12088;SDS011;6107;49.078;8.578;2022-08-03T06:33:06;5.95;;;3.78;;
12088;SDS011;6107;49.078;8.578;2022-08-03T06:37:47;5.35;;;3.67;;
12088;SDS011;6107;49.078;8.578;2022-08-03T06:40:17;3.58;;;3.20;;
12088;SDS011;6107;49.078;8.578;2022-08-03T06:42:44;4.43;;;3.40;;
12088;SDS011;6107;49.078;8.578;2022-08-03T06:45:10;8.00;;;3.80;;
12088;SDS011;6107;49.078;8.578;2022-08-03T06:47:37;5.32;;;3.63;;
12088;SDS011;6107;49.078;8.578;2022-08-03T06:50:04;4.45;;;3.10;;
12088;SDS011;6107;49.078;8.578;2022-08-03T06:52:30;4.13;;;3.40;;
12088;SDS011;6107;49.078;8.578;2022-08-03T06:54:56;4.72;;;3.60;;
12088;SDS011;6107;49.078;8.578;2022-08-03T06:57:22;4.55;;;3.40;;
12088;SDS011;6107;49.078;8.578;2022-08-03T06:59:48;6.18;;;3.55;;
12088;SDS011;6107;49.078;8.578;2022-08-03T07:02:13;5.63;;;3.63;;
12088;SDS011;6107;49.078;8.578;2022-08-03T07:04:39;4.10;;;3.40;;
12088;SDS011;6107;49.078;8.578;2022-08-03T07:07:04;5.43;;;3.40;;
12088;SDS011;6107;49.078;8.578;2022-08-03T07:09:30;4.63;;;3.70;;
12088;SDS011;6107;49.078;8.578;2022-08-03T07:11:56;3.83;;;3.15;;
12088;SDS011;6107;49.078;8.578;2022-08-03T07:14:21;4.80;;;3.50;;
12088;SDS011;6107;49.078;8.578;2022-08-03T07:16:47;4.90;;;3.53;;
12088;SDS011;6107;49.078;8.578;2022-08-03T07:19:12;3.65;;;3.35;;
12088;SDS011;6107;49.078;8.578;2022-08-03T07:21:38;5.32;;;3.47;;
12088;SDS011;6107;49.078;8.578;2022-08-03T07:24:04;4.70;;;3.42;;
12088;SDS011;6107;49.078;8.578;2022-08-03T07:26:30;4.95;;;3.22;;
12088;SDS011;6107;49.078;8.578;2022-08-03T07:28:55;8.15;;;3.40;;
12088;SDS011;6107;49.078;8.578;2022-08-03T07:31:21;3.97;;;3.25;;
12088;SDS011;6107;49.078;8.578;2022-08-03T07:33:46;5.38;;;3.53;;
12088;SDS011;6107;49.078;8.578;2022-08-03T07:36:12;4.60;;;3.15;;
12088;SDS011;6107;49.078;8.578;2022-08-03T07:38:37;5.10;;;3.30;;
12088;SDS011;6107;49.078;8.578;2022-08-03T07:41:03;4.05;;;3.17;;
12088;SDS011;6107;49.078;8.578;2022-08-03T07:43:29;4.20;;;3.40;;
12088;SDS011;6107;49.078;8.578;2022-08-03T07:45:54;5.47;;;3.20;;
12088;SDS011;6107;49.078;8.578;2022-08-03T07:48:20;4.00;;;3.30;;
12088;SDS011;6107;49.078;8.578;2022-08-03T07:50:45;5.18;;;3.42;;
12088;SDS011;6107;49.078;8.578;2022-08-03T07:53:11;4.80;;;3.60;;
12088;SDS011;6107;49.078;8.578;2022-08-03T07:55:37;5.07;;;3.20;;
12088;SDS011;6107;49.078;8.578;2022-08-03T07:58:10;3.63;;;3.13;;
12088;SDS011;6107;49.078;8.578;2022-08-03T08:00:39;8.85;;;4.25;;
12088;SDS011;6107;49.078;8.578;2022-08-03T08:03:06;3.47;;;3.10;;
12088;SDS011;6107;49.078;8.578;2022-08-03T08:05:32;3.70;;;3.30;;
12088;SDS011;6107;49.078;8.578;2022-08-03T08:07:58;4.15;;;3.33;;
12088;SDS011;6107;49.078;8.578;2022-08-03T08:10:25;5.05;;;3.33;;
12088;SDS011;6107;49.078;8.578;2022-08-03T08:12:51;3.67;;;3.38;;
12088;SDS011;6107;49.078;8.578;2022-08-03T08:15:17;3.20;;;2.90;;
12088;SDS011;6107;49.078;8.578;2022-08-03T08:17:47;3.47;;;3.17;;
12088;SDS011;6107;49.078;8.578;2022-08-03T08:20:15;9.27;;;3.53;;
12088;SDS011;6107;49.078;8.578;2022-08-03T08:22:45;3.65;;;3.00;;
12088;SDS011;6107;49.078;8.578;2022-08-03T08:25:11;5.03;;;3.28;;
12088;SDS011;6107;49.078;8.578;2022-08-03T08:27:41;3.38;;;3.08;;
12088;SDS011;6107;49.078;8.578;2022-08-03T08:30:07;5.97;;;3.22;;
12088;SDS011;6107;49.078;8.578;2022-08-03T08:32:33;3.25;;;2.80;;
12088;SDS011;6107;49.078;8.578;2022-08-03T08:35:01;3.42;;;3.13;;
12088;SDS011;6107;49.078;8.578;2022-08-03T08:37:27;3.60;;;3.30;;
12088;SDS011;6107;49.078;8.578;2022-08-03T08:39:54;4.50;;;2.55;;
12088;SDS011;6107;49.078;8.578;2022-08-03T08:42:20;4.65;;;3.08;;
12088;SDS011;6107;49.078;8.578;2022-08-03T08:44:46;112.03;;;7.70;;
12088;SDS011;6107;49.078;8.578;2022-08-03T08:47:12;3.38;;;2.90;;
12088;SDS011;6107;49.078;8.578;2022-08-03T08:49:38;5.15;;;2.80;;
12088;SDS011;6107;49.078;8.578;2022-08-03T08:52:05;3.58;;;2.70;;
12088;SDS011;6107;49.078;8.578;2022-08-03T08:54:33;2.83;;;2.63;;
12088;SDS011;6107;49.078;8.578;2022-08-03T08:57:02;3.47;;;2.75;;
12088;SDS011;6107;49.078;8.578;2022-08-03T08:59:31;4.10;;;2.55;;
12088;SDS011;6107;49.078;8.578;2022-08-03T09:01:58;2.50;;;2.30;;
12088;SDS011;6107;49.078;8.578;2022-08-03T09:04:24;3.88;;;2.30;;
12088;SDS011;6107;49.078;8.578;2022-08-03T09:06:51;3.17;;;2.50;;
12088;SDS011;6107;49.078;8.578;2022-08-03T09:09:17;3.90;;;2.40;;
12088;SDS011;6107;49.078;8.578;2022-08-03T09:11:42;3.53;;;2.60;;
12088;SDS011;6107;49.078;8.578;2022-08-03T09:14:09;3.72;;;2.45;;
12088;SDS011;6107;49.078;8.578;2022-08-03T09:16:35;2.95;;;2.42;;
12088;SDS011;6107;49.078;8.578;2022-08-03T09:19:11;3.00;;;2.50;;
12088;SDS011;6107;49.078;8.578;2022-08-03T09:21:40;3.25;;;2.20;;
12088;SDS011;6107;49.078;8.578;2022-08-03T09:24:06;2.60;;;2.40;;
12088;SDS011;6107;49.078;8.578;2022-08-03T09:26:35;2.80;;;2.33;;
12088;SDS011;6107;49.078;8.578;2022-08-03T09:29:07;2.80;;;2.60;;
12088;SDS011;6107;49.078;8.578;2022-08-03T09:31:37;3.22;;;2.70;;
12088;SDS011;6107;49.078;8.578;2022-08-03T09:34:08;3.20;;;2.30;;
12088;SDS011;6107;49.078;8.578;2022-08-03T09:36:35;2.65;;;2.30;;
12088;SDS011;6107;49.078;8.578;2022-08-03T09:39:05;3.30;;;2.47;;
12088;SDS011;6107;49.078;8.578;2022-08-03T09:41:34;7.10;;;2.45;;
12088;SDS011;6107;49.078;8.578;2022-08-03T09:44:00;3.10;;;2.45;;
12088;SDS011;6107;49.078;8.578;2022-08-03T09:46:26;3.38;;;2.10;;
12088;SDS011;6107;49.078;8.578;2022-08-03T09:49:07;3.28;;;2.53;;
12088;SDS011;6107;49.078;8.578;2022-08-03T09:51:33;4.80;;;2.38;;
12088;SDS011;6107;49.078;8.578;2022-08-03T09:53:59;2.72;;;2.35;;
12088;SDS011;6107;49.078;8.578;2022-08-03T09:56:38;2.85;;;2.17;;
12088;SDS011;6107;49.078;8.578;2022-08-03T09:59:04;3.97;;;2.53;;
12088;SDS011;6107;49.078;8.578;2022-08-03T10:01:33;5.60;;;2.40;;
12088;SDS011;6107;49.078;8.578;2022-08-03T10:03:59;2.45;;;2.10;;
12088;SDS011;6107;49.078;8.578;2022-08-03T10:06:26;3.10;;;2.40;;
12088;SDS011;6107;49.078;8.578;2022-08-03T10:09:05;2.63;;;2.22;;
12088;SDS011;6107;49.078;8.578;2022-08-03T10:11:32;2.75;;;2.15;;
12088;SDS011;6107;49.078;8.578;2022-08-03T10:14:05;2.38;;;2.17;;
12088;SDS011;6107;49.078;8.578;2022-08-03T10:16:35;5.13;;;2.40;;
12088;SDS011;6107;49.078;8.578;2022-08-03T10:19:05;3.00;;;2.20;;
12088;SDS011;6107;49.078;8.578;2022-08-03T10:21:35;6.80;;;2.63;;
12088;SDS011;6107;49.078;8.578;2022-08-03T10:24:05;4.70;;;2.38;;
12088;SDS011;6107;49.078;8.578;2022-08-03T10:26:33;1.90;;;1.80;;
12088;SDS011;6107;49.078;8.578;2022-08-03T10:28:59;3.95;;;2.60;;
12088;SDS011;6107;49.078;8.578;2022-08-03T10:31:30;2.55;;;2.20;;
12088;SDS011;6107;49.078;8.578;2022-08-03T10:33:59;3.15;;;2.10;;
12088;SDS011;6107;49.078;8.578;2022-08-03T10:36:26;4.57;;;2.25;;
12088;SDS011;6107;49.078;8.578;2022-08-03T10:38:55;4.47;;;2.15;;
12088;SDS011;6107;49.078;8.578;2022-08-03T10:41:25;3.60;;;2.20;;
12088;SDS011;6107;49.078;8.578;2022-08-03T10:43:56;4.90;;;2.40;;
12088;SDS011;6107;49.078;8.578;2022-08-03T10:46:23;3.05;;;2.33;;
12088;SDS011;6107;49.078;8.578;2022-08-03T10:48:51;2.70;;;2.20;;
12088;SDS011;6107;49.078;8.578;2022-08-03T10:51:17;3.95;;;2.38;;
12088;SDS011;6107;49.078;8.578;2022-08-03T10:53:43;2.20;;;2.00;;
12088;SDS011;6107;49.078;8.578;2022-08-03T10:59:13;2.60;;;2.40;;
12088;SDS011;6107;49.078;8.578;2022-08-03T11:01:52;19.38;;;9.43;;
12088;SDS011;6107;49.078;8.578;2022-08-03T11:04:19;2.35;;;2.15;;
12088;SDS011;6107;49.078;8.578;2022-08-03T11:06:47;3.50;;;2.30;;
12088;SDS011;6107;49.078;8.578;2022-08-03T11:09:40;2.92;;;2.20;;
12088;SDS011;6107;49.078;8.578;2022-08-03T11:12:19;4.75;;;2.22;;
12088;SDS011;6107;49.078;8.578;2022-08-03T11:14:46;2.55;;;2.35;;
12088;SDS011;6107;49.078;8.578;2022-08-03T11:17:12;6.75;;;2.17;;
12088;SDS011;6107;49.078;8.578;2022-08-03T11:19:45;3.13;;;2.55;;
12088;SDS011;6107;49.078;8.578;2022-08-03T11:22:11;4.32;;;2.30;;
12088;SDS011;6107;49.078;8.578;2022-08-03T11:30:22;2.28;;;2.08;;
12088;SDS011;6107;49.078;8.578;2022-08-03T11:42:58;2.60;;;2.15;;
12088;SDS011;6107;49.078;8.578;2022-08-03T11:45:24;2.30;;;2.10;;
12088;SDS011;6107;49.078;8.578;2022-08-03T11:47:53;2.40;;;2.20;;
12088;SDS011;6107;49.078;8.578;2022-08-03T11:50:20;2.13;;;1.80;;
12088;SDS011;6107;49.078;8.578;2022-08-03T11:52:47;4.80;;;2.20;;
12088;SDS011;6107;49.078;8.578;2022-08-03T11:55:14;5.57;;;2.83;;
12088;SDS011;6107;49.078;8.578;2022-08-03T11:57:40;3.10;;;2.20;;
12088;SDS011;6107;49.078;8.578;2022-08-03T12:08:06;2.63;;;2.25;;
12088;SDS011;6107;49.078;8.578;2022-08-03T12:10:32;2.30;;;2.00;;
12088;SDS011;6107;49.078;8.578;2022-08-03T12:12:59;2.35;;;1.92;;
12088;SDS011;6107;49.078;8.578;2022-08-03T12:15:29;2.97;;;2.15;;
12088;SDS011;6107;49.078;8.578;2022-08-03T12:17:57;2.20;;;2.00;;
12088;SDS011;6107;49.078;8.578;2022-08-03T12:20:25;2.45;;;2.10;;
12088;SDS011;6107;49.078;8.578;2022-08-03T12:22:51;2.95;;;2.40;;
12088;SDS011;6107;49.078;8.578;2022-08-03T12:25:21;2.90;;;1.95;;
12088;SDS011;6107;49.078;8.578;2022-08-03T12:27:48;2.28;;;2.08;;
12088;SDS011;6107;49.078;8.578;2022-08-03T12:30:14;3.28;;;2.10;;
12088;SDS011;6107;49.078;8.578;2022-08-03T12:32:41;2.58;;;1.90;;
12088;SDS011;6107;49.078;8.578;2022-08-03T12:35:07;2.40;;;2.20;;
12088;SDS011;6107;49.078;8.578;2022-08-03T12:37:34;4.22;;;1.90;;
12088;SDS011;6107;49.078;8.578;2022-08-03T12:40:00;4.88;;;2.30;;
12088;SDS011;6107;49.078;8.578;2022-08-03T12:42:30;3.25;;;2.13;;
12088;SDS011;6107;49.078;8.578;2022-08-03T12:44:56;2.83;;;1.92;;
12088;SDS011;6107;49.078;8.578;2022-08-03T12:47:22;2.00;;;1.80;;
12088;SDS011;6107;49.078;8.578;2022-08-03T12:49:49;2.55;;;2.25;;
12088;SDS011;6107;49.078;8.578;2022-08-03T12:52:16;2.17;;;1.98;;
12088;SDS011;6107;49.078;8.578;2022-08-03T12:54:42;2.83;;;2.03;;
12088;SDS011;6107;49.078;8.578;2022-08-03T12:57:10;5.25;;;2.08;;
12088;SDS011;6107;49.078;8.578;2022-08-03T12:59:37;3.00;;;2.00;;
12088;SDS011;6107;49.078;8.578;2022-08-03T13:04:40;2.45;;;1.98;;
12088;SDS011;6107;49.078;8.578;2022-08-03T13:07:06;2.90;;;2.20;;
12088;SDS011;6107;49.078;8.578;2022-08-03T13:09:43;3.80;;;2.50;;
12088;SDS011;6107;49.078;8.578;2022-08-03T13:12:13;2.35;;;2.10;;
12088;SDS011;6107;49.078;8.578;2022-08-03T13:14:40;2.85;;;2.10;;
12088;SDS011;6107;49.078;8.578;2022-08-03T13:17:06;2.92;;;1.90;;
12088;SDS011;6107;49.078;8.578;2022-08-03T13:19:36;2.50;;;2.08;;
12088;SDS011;6107;49.078;8.578;2022-08-03T13:22:12;2.33;;;2.13;;
12088;SDS011;6107;49.078;8.578;2022-08-03T13:24:39;2.45;;;2.20;;
12088;SDS011;6107;49.078;8.578;2022-08-03T13:27:05;2.15;;;1.95;;
12088;SDS011;6107;49.078;8.578;2022-08-03T13:29:32;3.03;;;2.00;;
12088;SDS011;6107;49.078;8.578;2022-08-03T13:31:58;2.60;;;1.98;;
12088;SDS011;6107;49.078;8.578;2022-08-03T13:34:24;3.35;;;2.00;;
12088;SDS011;6107;49.078;8.578;2022-08-03T13:36:50;2.75;;;2.05;;
12088;SDS011;6107;49.078;8.578;2022-08-03T13:39:16;3.38;;;2.10;;
12088;SDS011;6107;49.078;8.578;2022-08-03T13:41:44;3.55;;;2.10;;
12088;SDS011;6107;49.078;8.578;2022-08-03T13:44:10;4.85;;;2.03;;
12088;SDS011;6107;49.078;8.578;2022-08-03T13:46:36;2.70;;;2.33;;
12088;SDS011;6107;49.078;8.578;2022-08-03T13:49:02;2.72;;;2.35;;
12088;SDS011;6107;49.078;8.578;2022-08-03T13:51:28;2.30;;;2.10;;
12088;SDS011;6107;49.078;8.578;2022-08-03T13:53:54;3.35;;;2.20;;
12088;SDS011;6107;49.078;8.578;2022-08-03T13:56:21;2.80;;;2.45;;
12088;SDS011;6107;49.078;8.578;2022-08-03T13:58:47;2.08;;;1.88;;
12088;SDS011;6107;49.078;8.578;2022-08-03T14:01:13;5.32;;;2.08;;
12088;SDS011;6107;49.078;8.578;2022-08-03T14:03:41;3.22;;;2.00;;
12088;SDS011;6107;49.078;8.578;2022-08-03T14:06:07;2.15;;;1.95;;
12088;SDS011;6107;49.078;8.578;2022-08-03T14:08:33;2.03;;;1.77;;
12088;SDS011;6107;49.078;8.578;2022-08-03T14:10:59;2.28;;;2.08;;
12088;SDS011;6107;49.078;8.578;2022-08-03T14:13:25;2.03;;;1.90;;
12088;SDS011;6107;49.078;8.578;2022-08-03T14:15:51;2.65;;;2.22;;
12088;SDS011;6107;49.078;8.578;2022-08-03T14:18:19;2.58;;;2.28;;
12088;SDS011;6107;49.078;8.578;2022-08-03T14:20:45;2.20;;;2.00;;
12088;SDS011;6107;49.078;8.578;2022-08-03T14:23:11;1.98;;;1.85;;
12088;SDS011;6107;49.078;8.578;2022-08-03T14:25:37;4.40;;;2.00;;
12088;SDS011;6107;49.078;8.578;2022-08-03T14:28:05;2.08;;;1.90;;
12088;SDS011;6107;49.078;8.578;2022-08-03T14:30:31;4.00;;;2.15;;
12088;SDS011;6107;49.078;8.578;2022-08-03T14:32:57;2.90;;;1.98;;
12088;SDS011;6107;49.078;8.578;2022-08-03T14:35:23;3.15;;;2.13;;
12088;SDS011;6107;49.078;8.578;2022-08-03T14:37:49;2.35;;;2.10;;
12088;SDS011;6107;49.078;8.578;2022-08-03T14:40:16;2.30;;;2.10;;
12088;SDS011;6107;49.078;8.578;2022-08-03T14:42:42;2.40;;;2.00;;
12088;SDS011;6107;49.078;8.578;2022-08-03T14:45:08;3.13;;;1.77;;
12088;SDS011;6107;49.078;8.578;2022-08-03T14:47:34;3.40;;;2.20;;
12088;SDS011;6107;49.078;8.578;2022-08-03T14:50:00;2.33;;;1.95;;
12088;SDS011;6107;49.078;8.578;2022-08-03T14:52:28;2.17;;;1.92;;
12088;SDS011;6107;49.078;8.578;2022-08-03T14:54:54;3.30;;;2.00;;
12088;SDS011;6107;49.078;8.578;2022-08-03T14:57:20;2.20;;;1.90;;
12088;SDS011;6107;49.078;8.578;2022-08-03T14:59:47;2.50;;;2.30;;
12088;SDS011;6107;49.078;8.578;2022-08-03T15:02:13;3.65;;;2.00;;
12088;SDS011;6107;49.078;8.578;2022-08-03T15:04:39;2.80;;;2.22;;
12088;SDS011;6107;49.078;8.578;2022-08-03T15:07:05;2.20;;;2.00;;
12088;SDS011;6107;49.078;8.578;2022-08-03T15:09:31;2.45;;;2.25;;
12088;SDS011;6107;49.078;8.578;2022-08-03T15:11:57;2.53;;;2.10;;
12088;SDS011;6107;49.078;8.578;2022-08-03T15:14:23;3.30;;;1.95;;
12088;SDS011;6107;49.078;8.578;2022-08-03T15:16:50;3.17;;;2.22;;
12088;SDS011;6107;49.078;8.578;2022-08-03T15:19:16;2.65;;;1.80;;
12088;SDS011;6107;49.078;8.578;2022-08-03T15:21:42;2.47;;;2.10;;
12088;SDS011;6107;49.078;8.578;2022-08-03T15:24:08;2.20;;;2.00;;
12088;SDS011;6107;49.078;8.578;2022-08-03T15:26:34;2.28;;;1.83;;
12088;SDS011;6107;49.078;8.578;2022-08-03T15:29:00;2.25;;;1.98;;
12088;SDS011;6107;49.078;8.578;2022-08-03T15:31:28;2.47;;;2.20;;
12088;SDS011;6107;49.078;8.578;2022-08-03T15:33:54;2.95;;;2.05;;
12088;SDS011;6107;49.078;8.578;2022-08-03T15:36:20;2.25;;;2.05;;
12088;SDS011;6107;49.078;8.578;2022-08-03T15:38:46;4.82;;;2.03;;
12088;SDS011;6107;49.078;8.578;2022-08-03T15:41:12;3.42;;;2.40;;
12088;SDS011;6107;49.078;8.578;2022-08-03T15:43:38;2.15;;;1.90;;
12088;SDS011;6107;49.078;8.578;2022-08-03T15:46:05;3.10;;;2.13;;
12088;SDS011;6107;49.078;8.578;2022-08-03T15:48:31;2.88;;;1.90;;
12088;SDS011;6107;49.078;8.578;2022-08-03T15:50:57;2.13;;;1.92;;